createdAt,value
2019-01-21T00:00:42.898Z,-0.91
2019-01-21T00:03:14.812Z,-0.87
2019-01-21T00:05:44.166Z,-0.88
2019-01-21T00:08:13.845Z,-0.87
2019-01-21T00:10:43.520Z,-0.87
2019-01-21T00:13:13.457Z,-0.87
2019-01-21T00:15:43.073Z,-0.91
2019-01-21T00:18:12.801Z,-0.92
2019-01-21T00:20:42.392Z,-0.93
2019-01-21T00:23:11.956Z,-0.93
2019-01-21T00:25:41.553Z,-0.96
2019-01-21T00:28:11.110Z,-0.95
2019-01-21T00:30:40.799Z,-0.98
2019-01-21T00:33:10.455Z,-1.01
2019-01-21T00:35:40.042Z,-1.04
2019-01-21T00:38:09.608Z,-1.06
2019-01-21T00:40:39.533Z,-1.05
2019-01-21T00:43:09.164Z,-1.07
2019-01-21T00:45:38.727Z,-1.13
2019-01-21T00:48:08.387Z,-1.13
2019-01-21T00:50:38.313Z,-1.14
2019-01-21T00:53:09.087Z,-1.13
2019-01-21T00:55:38.637Z,-1.12
2019-01-21T00:58:08.297Z,-1.09
2019-01-21T01:00:37.939Z,-1.08
2019-01-21T01:03:07.717Z,-1.11
2019-01-21T01:05:37.344Z,-1.12
2019-01-21T01:08:07.088Z,-1.12
2019-01-21T01:10:36.722Z,-1.08
2019-01-21T01:13:06.301Z,-1.05
2019-01-21T01:15:37.511Z,-1.03
2019-01-21T01:18:07.239Z,-1.01
2019-01-21T01:20:36.796Z,-1.00
2019-01-21T01:23:06.912Z,-1.01
2019-01-21T01:25:36.541Z,-0.99
2019-01-21T01:28:06.354Z,-1.00
2019-01-21T01:30:35.911Z,-1.04
2019-01-21T01:33:05.930Z,-1.08
2019-01-21T01:35:36.712Z,-1.10
2019-01-21T01:38:06.528Z,-1.11
2019-01-21T01:40:36.144Z,-1.12
2019-01-21T01:43:05.902Z,-1.13
2019-01-21T01:45:35.914Z,-1.13
2019-01-21T01:48:06.165Z,-1.15
2019-01-21T01:50:35.863Z,-1.17
2019-01-21T01:53:05.715Z,-1.19
2019-01-21T01:55:35.351Z,-1.21
2019-01-21T01:58:05.782Z,-1.20
2019-01-21T02:00:35.943Z,-1.20
2019-01-21T02:03:07.375Z,-1.21
2019-01-21T02:05:36.962Z,-1.23
2019-01-21T02:08:06.801Z,-1.25
2019-01-21T02:10:36.507Z,-1.23
2019-01-21T02:13:06.530Z,-1.20
2019-01-21T02:15:36.319Z,-1.16
2019-01-21T02:18:06.158Z,-1.14
2019-01-21T02:20:35.731Z,-1.14
2019-01-21T02:23:05.763Z,-1.17
2019-01-21T02:25:51.741Z,-1.21
2019-01-21T02:28:34.864Z,-1.19
2019-01-21T02:32:00.864Z,-1.19
2019-01-21T02:34:37.588Z,-1.23
2019-01-21T02:37:34.212Z,-1.28
2019-01-21T02:40:20.284Z,-1.30
2019-01-21T02:43:15.264Z,-1.33
2019-01-21T02:46:23.001Z,-1.38
2019-01-21T02:49:08.871Z,-1.46
2019-01-21T02:51:57.883Z,-1.50
2019-01-21T02:54:37.753Z,-1.51
2019-01-21T02:57:21.002Z,-1.48
2019-01-21T03:00:04.486Z,-1.48
2019-01-21T03:02:44.998Z,-1.49
2019-01-21T03:05:43.599Z,-1.50
2019-01-21T03:08:49.790Z,-1.49
2019-01-21T03:11:44.323Z,-1.48
2019-01-21T03:14:24.245Z,-1.50
2019-01-21T03:17:22.925Z,-1.54
2019-01-21T03:20:12.208Z,-1.56
2019-01-21T03:23:27.662Z,-1.58
2019-01-21T03:26:07.926Z,-1.58
2019-01-21T03:28:42.594Z,-1.56
2019-01-21T03:31:41.313Z,-1.53
2019-01-21T03:34:24.033Z,-1.54
2019-01-21T03:37:33.349Z,-1.56
2019-01-21T03:40:25.742Z,-1.55
2019-01-21T03:43:02.749Z,-1.57
2019-01-21T03:46:11.708Z,-1.59
2019-01-21T03:48:43.531Z,-1.60
2019-01-21T03:51:59.955Z,-1.60
2019-01-21T03:54:31.971Z,-1.58
2019-01-21T03:57:09.528Z,-1.57
2019-01-21T03:59:58.709Z,-1.59
2019-01-21T04:02:44.301Z,-1.59
2019-01-21T04:05:48.528Z,-1.60
2019-01-21T04:08:41.175Z,-1.64
2019-01-21T04:11:33.556Z,-1.64
2019-01-21T04:14:30.262Z,-1.64
2019-01-21T04:17:22.471Z,-1.64
2019-01-21T04:20:05.280Z,-1.68
2019-01-21T04:22:45.428Z,-1.74
2019-01-21T04:25:43.691Z,-1.81
2019-01-21T04:28:23.533Z,-1.84
2019-01-21T04:31:21.575Z,-1.85
2019-01-21T04:34:07.589Z,-1.85
2019-01-21T04:37:02.444Z,-1.84
2019-01-21T04:39:43.154Z,-1.79
2019-01-21T04:42:26.012Z,-1.77
2019-01-21T04:45:06.438Z,-1.77
2019-01-21T04:48:11.119Z,-1.78
2019-01-21T04:50:51.219Z,-1.78
2019-01-21T04:53:37.690Z,-1.77
2019-01-21T04:56:20.213Z,-1.75
2019-01-21T04:59:21.413Z,-1.77
2019-01-21T05:01:58.384Z,-1.81
2019-01-21T05:04:41.516Z,-1.89
2019-01-21T05:07:35.176Z,-1.90
2019-01-21T05:10:23.584Z,-1.87
2019-01-21T05:13:26.101Z,-1.84
2019-01-21T05:16:00.381Z,-1.82
2019-01-21T05:19:12.632Z,-1.84
2019-01-21T05:22:06.571Z,-1.85
2019-01-21T05:24:57.619Z,-1.85
2019-01-21T05:27:49.990Z,-1.85
2019-01-21T05:30:32.845Z,-1.87
2019-01-21T05:33:12.810Z,-1.89
2019-01-21T05:36:20.629Z,-1.92
2019-01-21T05:39:04.039Z,-1.92
2019-01-21T05:42:11.301Z,-1.96
2019-01-21T05:45:07.803Z,-1.98
2019-01-21T05:47:57.014Z,-1.95
2019-01-21T05:51:18.525Z,-1.92
2019-01-21T05:53:55.435Z,-1.86
2019-01-21T05:56:35.414Z,-1.81
2019-01-21T05:59:35.149Z,-1.80
2019-01-21T06:02:36.433Z,-1.84
2019-01-21T06:05:34.783Z,-1.86
2019-01-21T06:08:42.456Z,-1.86
2019-01-21T06:11:25.363Z,-1.88
2019-01-21T06:14:11.645Z,-1.86
2019-01-21T06:17:03.569Z,-1.86
2019-01-21T06:19:56.010Z,-1.84
2019-01-21T06:22:50.774Z,-1.86
2019-01-21T06:25:45.826Z,-1.88
2019-01-21T06:28:49.575Z,-1.91
2019-01-21T06:31:41.689Z,-1.92
2019-01-21T06:34:58.692Z,-1.87
2019-01-21T06:37:35.942Z,-1.83
2019-01-21T06:40:21.696Z,-1.83
2019-01-21T06:43:12.536Z,-1.87
2019-01-21T06:46:15.139Z,-1.90
2019-01-21T06:49:06.111Z,-1.91
2019-01-21T06:52:17.902Z,-1.88
2019-01-21T06:55:13.494Z,-1.90
2019-01-21T06:58:05.693Z,-1.90
2019-01-21T07:00:54.769Z,-1.90
2019-01-21T07:03:48.545Z,-1.91
2019-01-21T07:06:55.743Z,-1.90
2019-01-21T07:09:38.840Z,-1.87
2019-01-21T07:12:27.958Z,-1.85
2019-01-21T07:15:16.733Z,-1.84
2019-01-21T07:18:31.810Z,-1.86
2019-01-21T07:21:40.600Z,-1.89
2019-01-21T07:24:35.638Z,-1.89
2019-01-21T07:27:18.632Z,-1.90
2019-01-21T07:30:18.675Z,-1.94
2019-01-21T07:32:58.680Z,-1.93
2019-01-21T07:35:59.380Z,-1.91
2019-01-21T07:38:54.587Z,-1.90
2019-01-21T07:41:31.303Z,-1.93
2019-01-21T07:44:29.847Z,-1.95
2019-01-21T07:47:30.313Z,-1.96
2019-01-21T07:50:10.365Z,-1.96
2019-01-21T07:53:06.551Z,-1.96
2019-01-21T07:56:09.405Z,-1.96
2019-01-21T07:58:58.437Z,-1.92
2019-01-21T08:02:07.019Z,-1.88
2019-01-21T08:04:59.323Z,-1.82
2019-01-21T08:07:39.243Z,-1.83
2019-01-21T08:10:51.392Z,-1.83
2019-01-21T08:13:42.395Z,-1.80
2019-01-21T08:16:45.337Z,-1.78
2019-01-21T08:19:27.766Z,-1.77
2019-01-21T08:22:26.009Z,-1.76
2019-01-21T08:25:32.185Z,-1.71
2019-01-21T08:28:14.801Z,-1.64
2019-01-21T08:31:10.197Z,-1.63
2019-01-21T08:34:08.485Z,-1.62
2019-01-21T08:37:15.988Z,-1.64
2019-01-21T08:40:05.410Z,-1.62
2019-01-21T08:42:56.114Z,-1.57
2019-01-21T08:46:14.015Z,-1.50
2019-01-21T08:49:17.627Z,-1.43
2019-01-21T08:52:09.124Z,-1.35
2019-01-21T08:54:49.484Z,-1.32
2019-01-21T08:58:04.598Z,-1.35
2019-01-21T09:00:54.221Z,-1.30
2019-01-21T09:03:34.096Z,-1.30
2019-01-21T09:06:17.071Z,-1.39
2019-01-21T09:09:21.332Z,-1.43
2019-01-21T09:12:22.327Z,-1.43
2019-01-21T09:15:11.235Z,-1.41
2019-01-21T09:17:54.482Z,-1.36
2019-01-21T09:20:39.956Z,-1.33
2019-01-21T09:23:29.066Z,-1.29
2019-01-21T09:26:42.591Z,-1.21
2019-01-21T09:29:28.855Z,-1.17
2019-01-21T09:32:14.779Z,-1.12
2019-01-21T09:34:52.433Z,-1.05
2019-01-21T09:37:38.289Z,-0.99
2019-01-21T09:40:23.799Z,-0.95
2019-01-21T09:43:16.268Z,-0.92
2019-01-21T09:46:11.646Z,-0.92
2019-01-21T09:48:39.629Z,-0.92
2019-01-21T09:51:09.571Z,-0.88
2019-01-21T09:53:40.142Z,-0.84
2019-01-21T09:56:09.776Z,-0.82
2019-01-21T09:58:40.382Z,-0.78
2019-01-21T10:01:10.574Z,-0.70
2019-01-21T10:03:42.125Z,-0.62
2019-01-21T10:06:11.863Z,-0.59
2019-01-21T10:08:55.069Z,-0.60
2019-01-21T10:11:44.158Z,-0.59
2019-01-21T10:15:05.251Z,-0.55
2019-01-21T10:17:45.466Z,-0.51
2019-01-21T10:20:22.222Z,-0.47
2019-01-21T10:23:10.464Z,-0.45
2019-01-21T10:25:53.614Z,-0.39
2019-01-21T10:28:36.957Z,-0.25
2019-01-21T10:31:22.581Z,-0.15
2019-01-21T10:33:59.809Z,0.02
2019-01-21T10:36:42.792Z,0.24
2019-01-21T10:39:31.235Z,0.31
2019-01-21T10:42:05.516Z,0.34
2019-01-21T10:44:53.980Z,0.34
2019-01-21T10:47:37.062Z,0.37
2019-01-21T10:50:25.369Z,0.32
2019-01-21T10:53:05.396Z,0.25
2019-01-21T10:56:01.966Z,0.20
2019-01-21T10:58:51.333Z,0.28
2019-01-21T11:01:58.417Z,0.33
2019-01-21T11:04:49.363Z,0.22
2019-01-21T11:07:44.437Z,0.19
2019-01-21T11:10:58.019Z,0.21
2019-01-21T11:13:52.999Z,0.19
2019-01-21T11:16:41.977Z,0.19
2019-01-21T11:19:32.984Z,0.20
2019-01-21T11:22:07.209Z,0.18
2019-01-21T11:25:13.054Z,0.11
2019-01-21T11:28:08.280Z,0.10
2019-01-21T11:31:24.927Z,0.05
2019-01-21T11:34:14.205Z,-0.02
2019-01-21T11:36:51.100Z,-0.02
2019-01-21T11:39:37.304Z,0.01
2019-01-21T11:42:22.907Z,0.09
2019-01-21T11:45:18.814Z,0.15
2019-01-21T11:48:13.482Z,0.27
2019-01-21T11:50:59.750Z,0.39
2019-01-21T11:53:46.165Z,0.46
2019-01-21T11:56:32.223Z,0.50
2019-01-21T11:59:30.473Z,0.53
2019-01-21T12:02:10.404Z,0.66
2019-01-21T12:04:44.673Z,0.69
2019-01-21T12:07:49.029Z,0.65
2019-01-21T12:10:56.485Z,0.51
2019-01-21T12:14:04.046Z,0.37
2019-01-21T12:17:00.545Z,0.27
2019-01-21T12:19:43.952Z,0.14
2019-01-21T12:22:45.317Z,-0.03
2019-01-21T12:25:31.363Z,-0.09
2019-01-21T12:28:42.275Z,-0.23
2019-01-21T12:31:31.211Z,-0.43
2019-01-21T12:34:08.110Z,-0.59
2019-01-21T12:36:42.398Z,-0.60
2019-01-21T12:39:22.591Z,-0.56
2019-01-21T12:42:02.692Z,-0.47
2019-01-21T12:44:54.851Z,-0.46
2019-01-21T12:47:44.246Z,-0.58
2019-01-21T12:50:48.780Z,-0.74
2019-01-21T12:53:31.988Z,-0.84
2019-01-21T12:56:28.763Z,-0.90
2019-01-21T12:59:34.878Z,-0.95
2019-01-21T13:02:30.804Z,-0.98
2019-01-21T13:05:11.021Z,-1.02
2019-01-21T13:07:47.980Z,-1.03
2019-01-21T13:10:37.411Z,-1.03
2019-01-21T13:13:38.163Z,-1.01
2019-01-21T13:16:30.203Z,-1.02
2019-01-21T13:19:27.251Z,-1.00
2019-01-21T13:22:20.880Z,-1.00
2019-01-21T13:25:14.836Z,-1.08
2019-01-21T13:28:00.855Z,-1.11
2019-01-21T13:31:04.126Z,-1.13
2019-01-21T13:34:08.083Z,-1.14
2019-01-21T13:36:44.976Z,-1.13
2019-01-21T13:39:34.135Z,-1.15
2019-01-21T13:42:08.401Z,-1.15
2019-01-21T13:44:48.043Z,-1.15
2019-01-21T13:47:37.201Z,-1.18
2019-01-21T13:50:37.422Z,-1.20
2019-01-21T13:53:33.648Z,-1.21
2019-01-21T13:56:23.102Z,-1.20
2019-01-21T13:59:16.687Z,-1.23
2019-01-21T14:02:11.959Z,-1.25
2019-01-21T14:05:13.552Z,-1.27
2019-01-21T14:08:11.771Z,-1.28
2019-01-21T14:10:54.638Z,-1.25
2019-01-21T14:13:46.877Z,-1.23
2019-01-21T14:16:32.851Z,-1.20
2019-01-21T14:19:26.426Z,-1.18
2019-01-21T14:22:03.051Z,-1.17
2019-01-21T14:24:56.914Z,-1.19
2019-01-21T14:27:33.866Z,-1.19
2019-01-21T14:30:23.098Z,-1.17
2019-01-21T14:33:11.875Z,-1.17
2019-01-21T14:36:10.201Z,-1.18
2019-01-21T14:39:09.440Z,-1.21
2019-01-21T14:41:49.235Z,-1.22
2019-01-21T14:44:59.651Z,-1.21
2019-01-21T14:47:42.224Z,-1.20
2019-01-21T14:50:21.895Z,-1.19
2019-01-21T14:53:17.058Z,-1.19
2019-01-21T14:56:15.489Z,-1.19
2019-01-21T14:59:01.705Z,-1.20
2019-01-21T15:01:57.471Z,-1.21
2019-01-21T15:04:52.578Z,-1.21
2019-01-21T15:07:26.870Z,-1.19
2019-01-21T15:10:27.847Z,-1.21
2019-01-21T15:13:07.947Z,-1.27
2019-01-21T15:16:00.742Z,-1.30
2019-01-21T15:18:59.324Z,-1.36
2019-01-21T15:21:52.392Z,-1.44
2019-01-21T15:25:13.302Z,-1.51
2019-01-21T15:28:14.659Z,-1.57
2019-01-21T15:31:01.055Z,-1.68
2019-01-21T15:33:44.011Z,-1.75
2019-01-21T15:36:53.132Z,-1.78
2019-01-21T15:39:39.166Z,-1.81
2019-01-21T15:42:28.402Z,-1.89
2019-01-21T15:45:23.125Z,-1.97
2019-01-21T15:48:30.758Z,-2.02
2019-01-21T15:51:22.451Z,-2.05
2019-01-21T15:54:17.144Z,-2.06
2019-01-21T15:57:20.911Z,-2.07
2019-01-21T16:00:07.001Z,-2.09
2019-01-21T16:02:50.070Z,-2.04
2019-01-21T16:05:38.826Z,-2.03
2019-01-21T16:08:13.100Z,-2.02
2019-01-21T16:11:02.353Z,-2.05
2019-01-21T16:13:36.614Z,-2.07
2019-01-21T16:16:38.429Z,-2.08
2019-01-21T16:19:12.645Z,-2.07
2019-01-21T16:22:17.171Z,-2.04
2019-01-21T16:25:00.204Z,-2.00
2019-01-21T16:28:07.880Z,-2.01
2019-01-21T16:31:02.370Z,-2.02
2019-01-21T16:33:51.156Z,-2.05
2019-01-21T16:36:34.288Z,-2.07
2019-01-21T16:39:17.291Z,-2.09
2019-01-21T16:42:00.314Z,-2.12
2019-01-21T16:44:29.899Z,-2.16
2019-01-21T16:46:59.471Z,-2.20
2019-01-21T16:49:29.051Z,-2.23
2019-01-21T16:51:58.722Z,-2.26
2019-01-21T16:54:28.291Z,-2.27
2019-01-21T16:56:57.965Z,-2.29
2019-01-21T16:59:27.532Z,-2.29
2019-01-21T17:01:57.152Z,-2.32
2019-01-21T17:04:26.790Z,-2.33
2019-01-21T17:06:56.434Z,-2.32
2019-01-21T17:09:26.069Z,-2.31
2019-01-21T17:11:55.864Z,-2.30
2019-01-21T17:14:25.443Z,-2.30
2019-01-21T17:16:55.028Z,-2.29
2019-01-21T17:19:24.593Z,-2.26
2019-01-21T17:21:54.190Z,-2.23
2019-01-21T17:24:24.102Z,-2.22
2019-01-21T17:26:53.680Z,-2.27
2019-01-21T17:29:23.268Z,-2.33
2019-01-21T17:31:52.914Z,-2.40
2019-01-21T17:34:22.465Z,-2.54
2019-01-21T17:36:52.058Z,-2.68
2019-01-21T17:39:21.620Z,-2.81
2019-01-21T17:41:51.218Z,-2.92
2019-01-21T17:44:20.775Z,-2.97
2019-01-21T17:46:50.366Z,-3.01
2019-01-21T17:49:19.935Z,-3.07
2019-01-21T17:51:49.528Z,-3.13
2019-01-21T17:54:19.102Z,-3.18
2019-01-21T17:56:48.678Z,-3.24
2019-01-21T17:59:18.260Z,-3.28
2019-01-21T18:01:47.923Z,-3.32
2019-01-21T18:04:17.503Z,-3.37
2019-01-21T18:06:47.088Z,-3.42
2019-01-21T18:09:16.730Z,-3.43
2019-01-21T18:11:46.324Z,-3.43
2019-01-21T18:14:15.897Z,-3.43
2019-01-21T18:16:45.579Z,-3.43
2019-01-21T18:19:15.166Z,-3.44
2019-01-21T18:21:44.936Z,-3.44
2019-01-21T18:24:14.493Z,-3.45
2019-01-21T18:26:44.048Z,-3.46
2019-01-21T18:29:13.631Z,-3.46
2019-01-21T18:31:43.205Z,-3.45
2019-01-21T18:34:12.773Z,-3.47
2019-01-21T18:36:42.646Z,-3.45
2019-01-21T18:39:12.563Z,-3.40
2019-01-21T18:41:42.206Z,-3.35
2019-01-21T18:44:11.868Z,-3.32
2019-01-21T18:46:41.486Z,-3.27
2019-01-21T18:49:11.226Z,-3.22
2019-01-21T18:51:46.506Z,-3.17
2019-01-21T18:54:12.082Z,-3.15
2019-01-21T18:56:41.714Z,-3.08
2019-01-21T18:59:11.380Z,-3.00
2019-01-21T19:01:41.025Z,-2.94
2019-01-21T19:04:10.634Z,-2.92
2019-01-21T19:06:40.255Z,-2.89
2019-01-21T19:09:09.835Z,-2.84
2019-01-21T19:11:39.431Z,-2.82
2019-01-21T19:14:09.165Z,-2.82
2019-01-21T19:16:38.835Z,-2.85
2019-01-21T19:19:09.442Z,-2.86
2019-01-21T19:21:39.131Z,-2.85
2019-01-21T19:24:08.956Z,-2.83
2019-01-21T19:26:38.516Z,-2.81
2019-01-21T19:29:08.119Z,-2.78
2019-01-21T19:31:37.671Z,-2.74
2019-01-21T19:34:07.392Z,-2.71
2019-01-21T19:36:36.960Z,-2.66
2019-01-21T19:39:08.096Z,-2.63
2019-01-21T19:41:37.652Z,-2.62
2019-01-21T19:44:07.396Z,-2.64
2019-01-21T19:46:37.019Z,-2.64
2019-01-21T19:49:06.774Z,-2.62
2019-01-21T19:51:36.357Z,-2.59
2019-01-21T19:54:06.943Z,-2.54
2019-01-21T19:56:36.567Z,-2.51
2019-01-21T19:59:06.207Z,-2.47
2019-01-21T20:01:35.801Z,-2.43
2019-01-21T20:04:05.681Z,-2.37
2019-01-21T20:06:35.265Z,-2.35
2019-01-21T20:09:07.765Z,-2.31
2019-01-21T20:11:37.508Z,-2.32
2019-01-21T20:14:07.208Z,-2.35
2019-01-21T20:16:36.873Z,-2.38
2019-01-21T20:19:06.434Z,-2.44
2019-01-21T20:21:36.021Z,-2.52
2019-01-21T20:24:05.758Z,-2.61
2019-01-21T20:26:35.414Z,-2.71
2019-01-21T20:29:05.254Z,-2.80
2019-01-21T20:31:34.890Z,-2.88
2019-01-21T20:34:04.562Z,-2.96
2019-01-21T20:36:34.296Z,-3.03
2019-01-21T20:39:05.530Z,-3.07
2019-01-21T20:41:35.150Z,-3.06
2019-01-21T20:44:05.254Z,-3.02
2019-01-21T20:46:34.857Z,-2.99
2019-01-21T20:49:04.425Z,-3.01
2019-01-21T20:51:34.098Z,-3.02
2019-01-21T20:54:03.680Z,-3.02
2019-01-21T20:56:33.256Z,-3.06
2019-01-21T20:59:02.822Z,-3.10
2019-01-21T21:01:32.418Z,-3.11
2019-01-21T21:04:01.984Z,-3.11
2019-01-21T21:06:31.576Z,-3.10
2019-01-21T21:09:01.230Z,-3.10
2019-01-21T21:11:30.824Z,-3.10
2019-01-21T21:14:00.386Z,-3.09
2019-01-21T21:16:29.973Z,-3.08
2019-01-21T21:18:59.540Z,-3.07
2019-01-21T21:21:29.191Z,-3.05
2019-01-21T21:23:58.744Z,-3.05
2019-01-21T21:26:28.338Z,-3.06
2019-01-21T21:28:57.919Z,-3.11
2019-01-21T21:31:27.486Z,-3.17
2019-01-21T21:33:57.234Z,-3.21
2019-01-21T21:36:26.796Z,-3.23
2019-01-21T21:38:56.371Z,-3.23
2019-01-21T21:41:25.948Z,-3.26
2019-01-21T21:43:55.545Z,-3.28
2019-01-21T21:46:25.097Z,-3.32
2019-01-21T21:48:54.754Z,-3.40
2019-01-21T21:51:24.359Z,-3.46
2019-01-21T21:53:53.938Z,-3.53
2019-01-21T21:56:23.495Z,-3.59
2019-01-21T21:58:53.103Z,-3.65
2019-01-21T22:01:23.957Z,-3.71
2019-01-21T22:03:53.767Z,-3.76
2019-01-21T22:06:33.664Z,-3.80
2019-01-21T22:09:03.920Z,-3.84
2019-01-21T22:11:33.476Z,-3.88
2019-01-21T22:14:03.051Z,-3.91
2019-01-21T22:16:32.612Z,-3.92
2019-01-21T22:19:02.193Z,-3.95
2019-01-21T22:21:31.749Z,-3.96
2019-01-21T22:24:01.333Z,-3.98
2019-01-21T22:26:30.886Z,-3.99
2019-01-21T22:29:00.481Z,-4.03
2019-01-21T22:31:30.054Z,-4.07
2019-01-21T22:33:59.622Z,-4.12
2019-01-21T22:36:29.185Z,-4.14
2019-01-21T22:38:58.772Z,-4.18
2019-01-21T22:41:28.323Z,-4.21
2019-01-21T22:43:57.989Z,-4.24
2019-01-21T22:46:27.539Z,-4.27
2019-01-21T22:48:57.121Z,-4.32
2019-01-21T22:51:26.668Z,-4.36
2019-01-21T22:53:56.252Z,-4.38
2019-01-21T22:56:25.819Z,-4.41
2019-01-21T22:58:55.403Z,-4.41
2019-01-21T23:01:25.616Z,-4.45
2019-01-21T23:03:55.555Z,-4.45
2019-01-21T23:06:25.124Z,-4.48
2019-01-21T23:08:54.699Z,-4.49
2019-01-21T23:11:24.253Z,-4.50
2019-01-21T23:13:53.944Z,-4.49
2019-01-21T23:16:23.588Z,-4.48
2019-01-21T23:18:53.284Z,-4.49
2019-01-21T23:21:22.879Z,-4.51
2019-01-21T23:23:52.442Z,-4.51
2019-01-21T23:26:22.087Z,-4.52
2019-01-21T23:28:51.920Z,-4.53
2019-01-21T23:31:21.511Z,-4.56
2019-01-21T23:33:51.088Z,-4.58
2019-01-21T23:36:20.672Z,-4.61
2019-01-21T23:38:50.221Z,-4.62
2019-01-21T23:41:20.154Z,-4.62
2019-01-21T23:43:49.721Z,-4.63
2019-01-21T23:46:19.368Z,-4.63
2019-01-21T23:48:48.926Z,-4.64
2019-01-21T23:51:18.572Z,-4.63
2019-01-21T23:53:48.310Z,-4.60
2019-01-21T23:56:17.963Z,-4.59
2019-01-21T23:58:47.525Z,-4.58
